sensor_id;sensor_type;location;lat;lon;timestamp;P1;durP1;ratioP1;P2;durP2;ratioP2
68192;SDS011;55012;47.562;18.414;2022-12-29T00:01:55;26.88;;;11.45;;
68192;SDS011;55012;47.562;18.414;2022-12-29T00:04:20;24.05;;;11.07;;
68192;SDS011;55012;47.562;18.414;2022-12-29T00:06:46;27.15;;;10.90;;
68192;SDS011;55012;47.562;18.414;2022-12-29T00:09:12;20.77;;;9.85;;
68192;SDS011;55012;47.562;18.414;2022-12-29T00:11:38;23.05;;;10.27;;
68192;SDS011;55012;47.562;18.414;2022-12-29T00:14:04;23.27;;;10.05;;
68192;SDS011;55012;47.562;18.414;2022-12-29T00:16:48;22.57;;;10.53;;
68192;SDS011;55012;47.562;18.414;2022-12-29T00:19:14;24.40;;;10.85;;
68192;SDS011;55012;47.562;18.414;2022-12-29T00:21:58;26.07;;;11.20;;
68192;SDS011;55012;47.562;18.414;2022-12-29T00:24:42;26.83;;;10.73;;
68192;SDS011;55012;47.562;18.414;2022-12-29T00:27:20;22.90;;;10.00;;
68192;SDS011;55012;47.562;18.414;2022-12-29T00:30:14;23.13;;;9.65;;
68192;SDS011;55012;47.562;18.414;2022-12-29T00:33:08;20.45;;;9.82;;
68192;SDS011;55012;47.562;18.414;2022-12-29T00:35:53;24.80;;;10.50;;
68192;SDS011;55012;47.562;18.414;2022-12-29T00:38:21;21.48;;;10.00;;
68192;SDS011;55012;47.562;18.414;2022-12-29T00:41:05;23.73;;;10.07;;
68192;SDS011;55012;47.562;18.414;2022-12-29T00:43:49;25.42;;;10.10;;
68192;SDS011;55012;47.562;18.414;2022-12-29T00:46:30;26.63;;;10.75;;
68192;SDS011;55012;47.562;18.414;2022-12-29T00:48:59;23.88;;;10.68;;
68192;SDS011;55012;47.562;18.414;2022-12-29T00:51:44;24.65;;;11.18;;
68192;SDS011;55012;47.562;18.414;2022-12-29T00:54:10;21.67;;;10.02;;
68192;SDS011;55012;47.562;18.414;2022-12-29T00:56:36;25.85;;;11.57;;
68192;SDS011;55012;47.562;18.414;2022-12-29T00:59:05;25.15;;;10.90;;
68192;SDS011;55012;47.562;18.414;2022-12-29T01:01:33;24.48;;;10.77;;
68192;SDS011;55012;47.562;18.414;2022-12-29T01:03:59;28.55;;;11.27;;
68192;SDS011;55012;47.562;18.414;2022-12-29T01:06:24;23.45;;;10.63;;
68192;SDS011;55012;47.562;18.414;2022-12-29T01:08:50;24.50;;;10.90;;
68192;SDS011;55012;47.562;18.414;2022-12-29T01:11:36;25.50;;;11.63;;
68192;SDS011;55012;47.562;18.414;2022-12-29T01:14:02;26.60;;;11.70;;
68192;SDS011;55012;47.562;18.414;2022-12-29T01:16:28;25.45;;;11.20;;
68192;SDS011;55012;47.562;18.414;2022-12-29T01:18:54;27.55;;;10.98;;
68192;SDS011;55012;47.562;18.414;2022-12-29T01:21:19;23.63;;;10.93;;
68192;SDS011;55012;47.562;18.414;2022-12-29T01:23:45;27.95;;;11.23;;
68192;SDS011;55012;47.562;18.414;2022-12-29T01:26:11;24.55;;;11.57;;
68192;SDS011;55012;47.562;18.414;2022-12-29T01:28:37;27.60;;;12.73;;
68192;SDS011;55012;47.562;18.414;2022-12-29T01:31:07;26.30;;;11.20;;
68192;SDS011;55012;47.562;18.414;2022-12-29T01:33:37;29.10;;;11.82;;
68192;SDS011;55012;47.562;18.414;2022-12-29T01:36:04;29.88;;;11.63;;
68192;SDS011;55012;47.562;18.414;2022-12-29T01:38:32;27.60;;;11.63;;
68192;SDS011;55012;47.562;18.414;2022-12-29T01:40:57;26.92;;;11.95;;
68192;SDS011;55012;47.562;18.414;2022-12-29T01:43:39;26.08;;;12.20;;
68192;SDS011;55012;47.562;18.414;2022-12-29T01:49:12;24.88;;;11.43;;
68192;SDS011;55012;47.562;18.414;2022-12-29T01:51:46;28.40;;;12.75;;
68192;SDS011;55012;47.562;18.414;2022-12-29T01:54:17;26.30;;;11.80;;
68192;SDS011;55012;47.562;18.414;2022-12-29T01:56:56;30.05;;;12.20;;
68192;SDS011;55012;47.562;18.414;2022-12-29T01:59:26;27.92;;;12.05;;
68192;SDS011;55012;47.562;18.414;2022-12-29T02:01:56;26.45;;;11.27;;
68192;SDS011;55012;47.562;18.414;2022-12-29T02:04:22;27.02;;;12.25;;
68192;SDS011;55012;47.562;18.414;2022-12-29T02:06:51;27.27;;;12.00;;
68192;SDS011;55012;47.562;18.414;2022-12-29T02:09:22;27.15;;;11.80;;
68192;SDS011;55012;47.562;18.414;2022-12-29T02:11:48;26.13;;;12.02;;
68192;SDS011;55012;47.562;18.414;2022-12-29T02:14:14;27.88;;;12.10;;
68192;SDS011;55012;47.562;18.414;2022-12-29T02:29:46;28.70;;;12.10;;
68192;SDS011;55012;47.562;18.414;2022-12-29T02:32:34;27.05;;;12.00;;
68192;SDS011;55012;47.562;18.414;2022-12-29T02:41:15;27.60;;;12.18;;
68192;SDS011;55012;47.562;18.414;2022-12-29T02:47:02;29.27;;;11.82;;
68192;SDS011;55012;47.562;18.414;2022-12-29T02:52:23;28.60;;;11.63;;
68192;SDS011;55012;47.562;18.414;2022-12-29T02:54:55;27.25;;;11.95;;
68192;SDS011;55012;47.562;18.414;2022-12-29T02:59:47;29.20;;;12.32;;
68192;SDS011;55012;47.562;18.414;2022-12-29T03:10:28;26.98;;;12.00;;
68192;SDS011;55012;47.562;18.414;2022-12-29T03:13:02;29.35;;;12.57;;
68192;SDS011;55012;47.562;18.414;2022-12-29T03:16:05;29.67;;;13.10;;
68192;SDS011;55012;47.562;18.414;2022-12-29T03:24:18;28.70;;;12.15;;
68192;SDS011;55012;47.562;18.414;2022-12-29T03:26:47;31.58;;;13.32;;
68192;SDS011;55012;47.562;18.414;2022-12-29T03:29:14;29.15;;;13.52;;
68192;SDS011;55012;47.562;18.414;2022-12-29T03:31:42;31.55;;;13.73;;
68192;SDS011;55012;47.562;18.414;2022-12-29T03:34:09;28.63;;;13.15;;
68192;SDS011;55012;47.562;18.414;2022-12-29T03:36:39;29.98;;;13.25;;
68192;SDS011;55012;47.562;18.414;2022-12-29T03:39:09;37.80;;;13.90;;
68192;SDS011;55012;47.562;18.414;2022-12-29T03:41:37;29.30;;;13.00;;
68192;SDS011;55012;47.562;18.414;2022-12-29T03:44:05;28.58;;;12.57;;
68192;SDS011;55012;47.562;18.414;2022-12-29T03:46:32;31.80;;;12.90;;
68192;SDS011;55012;47.562;18.414;2022-12-29T03:48:57;29.48;;;13.32;;
68192;SDS011;55012;47.562;18.414;2022-12-29T03:51:23;29.13;;;13.13;;
68192;SDS011;55012;47.562;18.414;2022-12-29T03:53:48;28.02;;;12.77;;
68192;SDS011;55012;47.562;18.414;2022-12-29T03:56:13;29.90;;;13.20;;
68192;SDS011;55012;47.562;18.414;2022-12-29T03:58:39;30.45;;;13.38;;
68192;SDS011;55012;47.562;18.414;2022-12-29T04:01:04;32.33;;;13.32;;
68192;SDS011;55012;47.562;18.414;2022-12-29T04:03:30;33.60;;;13.80;;
68192;SDS011;55012;47.562;18.414;2022-12-29T04:05:55;30.02;;;14.00;;
68192;SDS011;55012;47.562;18.414;2022-12-29T04:08:20;32.22;;;14.02;;
68192;SDS011;55012;47.562;18.414;2022-12-29T04:10:47;31.25;;;14.23;;
68192;SDS011;55012;47.562;18.414;2022-12-29T04:13:13;31.48;;;13.82;;
68192;SDS011;55012;47.562;18.414;2022-12-29T04:15:39;30.90;;;13.50;;
68192;SDS011;55012;47.562;18.414;2022-12-29T04:18:04;31.55;;;13.85;;
68192;SDS011;55012;47.562;18.414;2022-12-29T04:20:30;31.20;;;13.52;;
68192;SDS011;55012;47.562;18.414;2022-12-29T04:23:13;34.05;;;14.77;;
68192;SDS011;55012;47.562;18.414;2022-12-29T04:25:39;35.63;;;14.63;;
68192;SDS011;55012;47.562;18.414;2022-12-29T04:28:04;35.83;;;14.88;;
68192;SDS011;55012;47.562;18.414;2022-12-29T04:30:31;30.15;;;14.18;;
68192;SDS011;55012;47.562;18.414;2022-12-29T04:32:57;33.25;;;13.60;;
68192;SDS011;55012;47.562;18.414;2022-12-29T04:35:22;32.20;;;13.10;;
68192;SDS011;55012;47.562;18.414;2022-12-29T04:37:47;32.58;;;14.05;;
68192;SDS011;55012;47.562;18.414;2022-12-29T04:40:13;32.90;;;14.85;;
68192;SDS011;55012;47.562;18.414;2022-12-29T04:42:38;31.35;;;13.85;;
68192;SDS011;55012;47.562;18.414;2022-12-29T04:45:04;31.00;;;14.27;;
68192;SDS011;55012;47.562;18.414;2022-12-29T04:47:30;36.45;;;14.65;;
68192;SDS011;55012;47.562;18.414;2022-12-29T04:49:55;32.65;;;13.68;;
68192;SDS011;55012;47.562;18.414;2022-12-29T04:52:20;33.05;;;14.40;;
68192;SDS011;55012;47.562;18.414;2022-12-29T04:54:46;33.90;;;15.00;;
68192;SDS011;55012;47.562;18.414;2022-12-29T04:57:11;31.27;;;13.90;;
68192;SDS011;55012;47.562;18.414;2022-12-29T04:59:37;35.42;;;14.85;;
68192;SDS011;55012;47.562;18.414;2022-12-29T05:02:02;29.17;;;13.77;;
68192;SDS011;55012;47.562;18.414;2022-12-29T05:04:27;32.95;;;14.63;;
68192;SDS011;55012;47.562;18.414;2022-12-29T05:06:53;33.78;;;15.00;;
68192;SDS011;55012;47.562;18.414;2022-12-29T05:09:18;33.90;;;14.63;;
68192;SDS011;55012;47.562;18.414;2022-12-29T05:11:44;31.48;;;13.40;;
68192;SDS011;55012;47.562;18.414;2022-12-29T05:14:09;29.65;;;13.43;;
68192;SDS011;55012;47.562;18.414;2022-12-29T05:16:34;35.63;;;14.30;;
68192;SDS011;55012;47.562;18.414;2022-12-29T05:19:00;38.38;;;17.95;;
68192;SDS011;55012;47.562;18.414;2022-12-29T05:21:25;32.53;;;14.32;;
68192;SDS011;55012;47.562;18.414;2022-12-29T05:23:51;34.92;;;14.95;;
68192;SDS011;55012;47.562;18.414;2022-12-29T05:26:16;30.90;;;13.80;;
68192;SDS011;55012;47.562;18.414;2022-12-29T05:28:42;35.72;;;14.77;;
68192;SDS011;55012;47.562;18.414;2022-12-29T05:31:07;33.63;;;14.45;;
68192;SDS011;55012;47.562;18.414;2022-12-29T05:33:32;32.85;;;15.43;;
68192;SDS011;55012;47.562;18.414;2022-12-29T05:36:03;36.05;;;14.85;;
68192;SDS011;55012;47.562;18.414;2022-12-29T05:38:32;35.75;;;15.25;;
68192;SDS011;55012;47.562;18.414;2022-12-29T05:40:58;37.97;;;15.93;;
68192;SDS011;55012;47.562;18.414;2022-12-29T05:43:24;33.67;;;14.82;;
68192;SDS011;55012;47.562;18.414;2022-12-29T05:45:49;33.58;;;15.45;;
68192;SDS011;55012;47.562;18.414;2022-12-29T05:48:15;37.55;;;14.77;;
68192;SDS011;55012;47.562;18.414;2022-12-29T05:50:40;33.42;;;15.02;;
68192;SDS011;55012;47.562;18.414;2022-12-29T05:53:06;35.83;;;15.93;;
68192;SDS011;55012;47.562;18.414;2022-12-29T05:55:31;33.53;;;14.73;;
68192;SDS011;55012;47.562;18.414;2022-12-29T05:57:57;34.88;;;14.43;;
68192;SDS011;55012;47.562;18.414;2022-12-29T06:00:23;32.20;;;13.25;;
68192;SDS011;55012;47.562;18.414;2022-12-29T06:02:48;32.47;;;14.68;;
68192;SDS011;55012;47.562;18.414;2022-12-29T06:05:14;37.90;;;15.95;;
68192;SDS011;55012;47.562;18.414;2022-12-29T06:07:40;35.30;;;14.88;;
68192;SDS011;55012;47.562;18.414;2022-12-29T06:10:05;34.00;;;15.20;;
68192;SDS011;55012;47.562;18.414;2022-12-29T06:12:31;34.08;;;15.30;;
68192;SDS011;55012;47.562;18.414;2022-12-29T06:14:56;37.78;;;15.07;;
68192;SDS011;55012;47.562;18.414;2022-12-29T06:17:22;32.53;;;14.75;;
68192;SDS011;55012;47.562;18.414;2022-12-29T06:19:47;33.90;;;15.07;;
68192;SDS011;55012;47.562;18.414;2022-12-29T06:22:13;37.05;;;15.02;;
68192;SDS011;55012;47.562;18.414;2022-12-29T06:24:38;33.15;;;15.25;;
68192;SDS011;55012;47.562;18.414;2022-12-29T06:27:04;35.83;;;15.68;;
68192;SDS011;55012;47.562;18.414;2022-12-29T06:29:29;34.20;;;14.38;;
68192;SDS011;55012;47.562;18.414;2022-12-29T06:31:55;34.95;;;15.13;;
68192;SDS011;55012;47.562;18.414;2022-12-29T06:34:23;33.97;;;15.90;;
68192;SDS011;55012;47.562;18.414;2022-12-29T06:36:49;34.50;;;15.27;;
68192;SDS011;55012;47.562;18.414;2022-12-29T06:39:15;37.08;;;15.27;;
68192;SDS011;55012;47.562;18.414;2022-12-29T06:41:40;33.05;;;14.05;;
68192;SDS011;55012;47.562;18.414;2022-12-29T06:44:06;36.53;;;15.77;;
68192;SDS011;55012;47.562;18.414;2022-12-29T06:46:31;33.63;;;15.50;;
68192;SDS011;55012;47.562;18.414;2022-12-29T06:48:57;31.15;;;14.60;;
68192;SDS011;55012;47.562;18.414;2022-12-29T06:51:22;33.83;;;15.70;;
68192;SDS011;55012;47.562;18.414;2022-12-29T06:53:47;38.58;;;15.80;;
68192;SDS011;55012;47.562;18.414;2022-12-29T06:56:13;36.83;;;15.80;;
68192;SDS011;55012;47.562;18.414;2022-12-29T06:58:38;36.03;;;15.43;;
68192;SDS011;55012;47.562;18.414;2022-12-29T07:01:04;36.38;;;15.60;;
68192;SDS011;55012;47.562;18.414;2022-12-29T07:03:29;37.03;;;16.75;;
68192;SDS011;55012;47.562;18.414;2022-12-29T07:05:55;35.25;;;15.35;;
68192;SDS011;55012;47.562;18.414;2022-12-29T07:08:22;34.80;;;15.95;;
68192;SDS011;55012;47.562;18.414;2022-12-29T07:10:48;32.40;;;14.10;;
68192;SDS011;55012;47.562;18.414;2022-12-29T07:13:14;34.08;;;15.27;;
68192;SDS011;55012;47.562;18.414;2022-12-29T07:15:39;40.35;;;16.08;;
68192;SDS011;55012;47.562;18.414;2022-12-29T07:18:05;34.35;;;14.95;;
68192;SDS011;55012;47.562;18.414;2022-12-29T07:20:30;35.58;;;15.88;;
68192;SDS011;55012;47.562;18.414;2022-12-29T07:22:57;34.03;;;15.32;;
68192;SDS011;55012;47.562;18.414;2022-12-29T07:25:22;35.10;;;15.32;;
68192;SDS011;55012;47.562;18.414;2022-12-29T07:27:48;35.20;;;15.90;;
68192;SDS011;55012;47.562;18.414;2022-12-29T07:30:13;37.03;;;15.05;;
68192;SDS011;55012;47.562;18.414;2022-12-29T07:32:39;36.72;;;15.82;;
68192;SDS011;55012;47.562;18.414;2022-12-29T07:35:05;36.33;;;15.90;;
68192;SDS011;55012;47.562;18.414;2022-12-29T07:37:31;35.38;;;15.48;;
68192;SDS011;55012;47.562;18.414;2022-12-29T07:39:56;39.92;;;16.52;;
68192;SDS011;55012;47.562;18.414;2022-12-29T07:42:22;36.85;;;16.25;;
68192;SDS011;55012;47.562;18.414;2022-12-29T07:44:47;36.85;;;16.25;;
68192;SDS011;55012;47.562;18.414;2022-12-29T07:47:13;37.42;;;15.95;;
68192;SDS011;55012;47.562;18.414;2022-12-29T07:49:38;38.90;;;16.48;;
68192;SDS011;55012;47.562;18.414;2022-12-29T07:52:03;37.85;;;16.83;;
68192;SDS011;55012;47.562;18.414;2022-12-29T07:54:29;34.90;;;15.45;;
68192;SDS011;55012;47.562;18.414;2022-12-29T07:56:54;37.25;;;16.25;;
68192;SDS011;55012;47.562;18.414;2022-12-29T07:59:20;38.63;;;17.02;;
68192;SDS011;55012;47.562;18.414;2022-12-29T08:01:45;39.33;;;17.25;;
68192;SDS011;55012;47.562;18.414;2022-12-29T08:04:11;39.25;;;17.23;;
68192;SDS011;55012;47.562;18.414;2022-12-29T08:06:36;40.22;;;16.98;;
68192;SDS011;55012;47.562;18.414;2022-12-29T08:09:02;41.03;;;18.10;;
68192;SDS011;55012;47.562;18.414;2022-12-29T08:11:28;44.25;;;18.30;;
68192;SDS011;55012;47.562;18.414;2022-12-29T08:13:53;38.50;;;17.80;;
68192;SDS011;55012;47.562;18.414;2022-12-29T08:16:19;45.28;;;18.80;;
68192;SDS011;55012;47.562;18.414;2022-12-29T08:18:44;37.83;;;17.13;;
68192;SDS011;55012;47.562;18.414;2022-12-29T08:21:10;39.03;;;17.17;;
68192;SDS011;55012;47.562;18.414;2022-12-29T08:23:35;39.88;;;17.52;;
68192;SDS011;55012;47.562;18.414;2022-12-29T08:26:02;37.75;;;17.35;;
68192;SDS011;55012;47.562;18.414;2022-12-29T08:28:29;38.15;;;17.48;;
68192;SDS011;55012;47.562;18.414;2022-12-29T08:30:59;37.53;;;16.45;;
68192;SDS011;55012;47.562;18.414;2022-12-29T08:33:26;37.92;;;17.27;;
68192;SDS011;55012;47.562;18.414;2022-12-29T08:35:52;37.38;;;16.15;;
68192;SDS011;55012;47.562;18.414;2022-12-29T08:38:18;36.63;;;17.42;;
68192;SDS011;55012;47.562;18.414;2022-12-29T08:40:43;36.08;;;17.05;;
68192;SDS011;55012;47.562;18.414;2022-12-29T08:43:09;42.75;;;17.48;;
68192;SDS011;55012;47.562;18.414;2022-12-29T08:45:34;40.45;;;18.20;;
68192;SDS011;55012;47.562;18.414;2022-12-29T08:48:00;38.55;;;17.38;;
68192;SDS011;55012;47.562;18.414;2022-12-29T08:50:25;39.58;;;18.05;;
68192;SDS011;55012;47.562;18.414;2022-12-29T08:52:51;37.63;;;16.13;;
68192;SDS011;55012;47.562;18.414;2022-12-29T08:55:16;39.40;;;18.10;;
68192;SDS011;55012;47.562;18.414;2022-12-29T08:57:41;38.45;;;18.60;;
68192;SDS011;55012;47.562;18.414;2022-12-29T09:00:07;38.50;;;17.60;;
68192;SDS011;55012;47.562;18.414;2022-12-29T09:02:33;36.80;;;17.30;;
68192;SDS011;55012;47.562;18.414;2022-12-29T09:04:58;39.83;;;18.75;;
68192;SDS011;55012;47.562;18.414;2022-12-29T09:07:25;43.80;;;17.60;;
68192;SDS011;55012;47.562;18.414;2022-12-29T09:09:50;40.97;;;18.45;;
68192;SDS011;55012;47.562;18.414;2022-12-29T09:12:16;44.20;;;19.20;;
68192;SDS011;55012;47.562;18.414;2022-12-29T09:14:42;41.58;;;19.15;;
68192;SDS011;55012;47.562;18.414;2022-12-29T09:17:09;41.67;;;18.67;;
68192;SDS011;55012;47.562;18.414;2022-12-29T09:19:53;40.73;;;17.77;;
68192;SDS011;55012;47.562;18.414;2022-12-29T09:22:18;43.78;;;19.45;;
68192;SDS011;55012;47.562;18.414;2022-12-29T09:24:44;43.42;;;18.88;;
68192;SDS011;55012;47.562;18.414;2022-12-29T09:27:09;41.30;;;18.55;;
68192;SDS011;55012;47.562;18.414;2022-12-29T09:29:35;42.13;;;18.70;;
68192;SDS011;55012;47.562;18.414;2022-12-29T09:32:00;40.10;;;18.27;;
68192;SDS011;55012;47.562;18.414;2022-12-29T09:34:25;44.63;;;19.65;;
68192;SDS011;55012;47.562;18.414;2022-12-29T09:36:51;41.80;;;18.55;;
68192;SDS011;55012;47.562;18.414;2022-12-29T09:39:16;46.85;;;20.02;;
68192;SDS011;55012;47.562;18.414;2022-12-29T09:47:13;43.30;;;18.83;;
68192;SDS011;55012;47.562;18.414;2022-12-29T09:49:45;42.88;;;18.73;;
68192;SDS011;55012;47.562;18.414;2022-12-29T09:52:34;42.10;;;18.80;;
68192;SDS011;55012;47.562;18.414;2022-12-29T09:55:22;39.17;;;18.65;;
68192;SDS011;55012;47.562;18.414;2022-12-29T09:57:54;39.60;;;18.42;;
68192;SDS011;55012;47.562;18.414;2022-12-29T10:00:27;40.00;;;18.02;;
68192;SDS011;55012;47.562;18.414;2022-12-29T10:03:07;41.28;;;18.10;;
68192;SDS011;55012;47.562;18.414;2022-12-29T10:10:50;43.53;;;19.77;;
68192;SDS011;55012;47.562;18.414;2022-12-29T10:16:25;43.75;;;20.10;;
68192;SDS011;55012;47.562;18.414;2022-12-29T10:24:32;42.05;;;19.27;;
68192;SDS011;55012;47.562;18.414;2022-12-29T10:27:02;41.28;;;19.02;;
68192;SDS011;55012;47.562;18.414;2022-12-29T10:29:36;43.35;;;19.65;;
68192;SDS011;55012;47.562;18.414;2022-12-29T10:34:39;40.13;;;19.42;;
68192;SDS011;55012;47.562;18.414;2022-12-29T10:42:53;44.17;;;18.95;;
68192;SDS011;55012;47.562;18.414;2022-12-29T10:45:20;42.55;;;19.80;;
68192;SDS011;55012;47.562;18.414;2022-12-29T10:48:11;41.80;;;19.63;;
68192;SDS011;55012;47.562;18.414;2022-12-29T10:50:48;41.95;;;19.88;;
68192;SDS011;55012;47.562;18.414;2022-12-29T10:53:22;43.78;;;19.52;;
68192;SDS011;55012;47.562;18.414;2022-12-29T10:55:51;42.22;;;19.83;;
68192;SDS011;55012;47.562;18.414;2022-12-29T10:58:17;41.90;;;20.05;;
68192;SDS011;55012;47.562;18.414;2022-12-29T11:00:47;42.15;;;20.05;;
68192;SDS011;55012;47.562;18.414;2022-12-29T11:08:31;47.53;;;20.40;;
68192;SDS011;55012;47.562;18.414;2022-12-29T11:11:03;45.83;;;19.88;;
68192;SDS011;55012;47.562;18.414;2022-12-29T11:16:30;46.47;;;20.77;;
68192;SDS011;55012;47.562;18.414;2022-12-29T11:18:58;44.17;;;19.30;;
68192;SDS011;55012;47.562;18.414;2022-12-29T11:21:26;43.55;;;19.83;;
68192;SDS011;55012;47.562;18.414;2022-12-29T11:24:05;40.75;;;19.58;;
68192;SDS011;55012;47.562;18.414;2022-12-29T11:26:43;40.10;;;18.83;;
68192;SDS011;55012;47.562;18.414;2022-12-29T11:31:46;39.08;;;18.00;;
68192;SDS011;55012;47.562;18.414;2022-12-29T11:34:20;40.25;;;19.42;;
68192;SDS011;55012;47.562;18.414;2022-12-29T11:37:04;43.10;;;19.67;;
68192;SDS011;55012;47.562;18.414;2022-12-29T11:42:15;45.92;;;20.98;;
68192;SDS011;55012;47.562;18.414;2022-12-29T11:44:43;47.83;;;21.15;;
68192;SDS011;55012;47.562;18.414;2022-12-29T11:47:23;51.90;;;23.13;;
68192;SDS011;55012;47.562;18.414;2022-12-29T11:49:53;52.88;;;23.83;;
68192;SDS011;55012;47.562;18.414;2022-12-29T11:52:23;48.75;;;22.55;;
68192;SDS011;55012;47.562;18.414;2022-12-29T11:54:51;51.50;;;23.65;;
68192;SDS011;55012;47.562;18.414;2022-12-29T11:57:18;50.47;;;22.25;;
68192;SDS011;55012;47.562;18.414;2022-12-29T12:00:18;49.78;;;22.08;;
68192;SDS011;55012;47.562;18.414;2022-12-29T12:02:42;47.88;;;22.10;;
68192;SDS011;55012;47.562;18.414;2022-12-29T12:05:41;46.80;;;21.50;;
68192;SDS011;55012;47.562;18.414;2022-12-29T12:10:47;43.22;;;20.92;;
68192;SDS011;55012;47.562;18.414;2022-12-29T12:16:08;43.67;;;19.88;;
68192;SDS011;55012;47.562;18.414;2022-12-29T12:21:20;47.72;;;22.13;;
68192;SDS011;55012;47.562;18.414;2022-12-29T12:32:10;45.33;;;20.60;;
68192;SDS011;55012;47.562;18.414;2022-12-29T12:34:43;44.28;;;20.75;;
68192;SDS011;55012;47.562;18.414;2022-12-29T12:50:32;46.00;;;20.63;;
68192;SDS011;55012;47.562;18.414;2022-12-29T12:53:17;44.50;;;21.38;;
68192;SDS011;55012;47.562;18.414;2022-12-29T13:01:55;47.00;;;19.33;;
68192;SDS011;55012;47.562;18.414;2022-12-29T13:04:48;42.53;;;20.02;;
68192;SDS011;55012;47.562;18.414;2022-12-29T13:19:41;43.72;;;20.90;;
68192;SDS011;55012;47.562;18.414;2022-12-29T13:22:25;44.40;;;21.40;;
68192;SDS011;55012;47.562;18.414;2022-12-29T13:30:38;43.17;;;21.10;;
68192;SDS011;55012;47.562;18.414;2022-12-29T13:33:21;42.92;;;20.67;;
68192;SDS011;55012;47.562;18.414;2022-12-29T13:36:03;45.08;;;21.38;;
68192;SDS011;55012;47.562;18.414;2022-12-29T13:44:09;51.15;;;24.80;;
68192;SDS011;55012;47.562;18.414;2022-12-29T13:46:45;50.65;;;23.45;;
68192;SDS011;55012;47.562;18.414;2022-12-29T13:49:13;53.88;;;23.92;;
68192;SDS011;55012;47.562;18.414;2022-12-29T13:51:50;49.22;;;23.95;;
68192;SDS011;55012;47.562;18.414;2022-12-29T14:00:15;49.05;;;23.17;;
68192;SDS011;55012;47.562;18.414;2022-12-29T14:07:45;50.97;;;25.20;;
68192;SDS011;55012;47.562;18.414;2022-12-29T14:13:20;48.92;;;24.25;;
68192;SDS011;55012;47.562;18.414;2022-12-29T14:15:55;52.67;;;24.40;;
68192;SDS011;55012;47.562;18.414;2022-12-29T14:18:34;65.63;;;30.85;;
68192;SDS011;55012;47.562;18.414;2022-12-29T14:23:49;54.28;;;25.38;;
68192;SDS011;55012;47.562;18.414;2022-12-29T14:26:17;57.95;;;26.95;;
68192;SDS011;55012;47.562;18.414;2022-12-29T14:28:55;55.17;;;26.02;;
68192;SDS011;55012;47.562;18.414;2022-12-29T14:39:00;60.45;;;27.42;;
68192;SDS011;55012;47.562;18.414;2022-12-29T14:41:28;59.47;;;28.30;;
68192;SDS011;55012;47.562;18.414;2022-12-29T14:49:31;62.28;;;28.60;;
68192;SDS011;55012;47.562;18.414;2022-12-29T14:52:05;60.85;;;29.13;;
68192;SDS011;55012;47.562;18.414;2022-12-29T14:54:45;64.68;;;28.98;;
68192;SDS011;55012;47.562;18.414;2022-12-29T14:57:39;64.63;;;29.25;;
68192;SDS011;55012;47.562;18.414;2022-12-29T15:02:38;65.80;;;29.00;;
68192;SDS011;55012;47.562;18.414;2022-12-29T15:05:10;67.55;;;29.35;;
68192;SDS011;55012;47.562;18.414;2022-12-29T15:07:49;62.97;;;28.83;;
68192;SDS011;55012;47.562;18.414;2022-12-29T15:10:15;63.72;;;28.75;;
68192;SDS011;55012;47.562;18.414;2022-12-29T15:12:49;62.08;;;27.42;;
68192;SDS011;55012;47.562;18.414;2022-12-29T15:17:51;70.65;;;29.60;;
68192;SDS011;55012;47.562;18.414;2022-12-29T15:20:27;65.38;;;28.15;;
68192;SDS011;55012;47.562;18.414;2022-12-29T15:22:58;59.85;;;28.20;;
68192;SDS011;55012;47.562;18.414;2022-12-29T15:25:28;59.10;;;27.90;;
68192;SDS011;55012;47.562;18.414;2022-12-29T15:27:57;62.60;;;28.50;;
68192;SDS011;55012;47.562;18.414;2022-12-29T15:30:29;63.90;;;28.52;;
68192;SDS011;55012;47.562;18.414;2022-12-29T15:32:55;65.63;;;29.38;;
68192;SDS011;55012;47.562;18.414;2022-12-29T15:35:25;64.30;;;29.85;;
68192;SDS011;55012;47.562;18.414;2022-12-29T15:37:58;60.53;;;27.80;;
68192;SDS011;55012;47.562;18.414;2022-12-29T15:40:28;61.78;;;27.65;;
68192;SDS011;55012;47.562;18.414;2022-12-29T15:43:03;65.75;;;29.95;;
68192;SDS011;55012;47.562;18.414;2022-12-29T15:48:00;62.55;;;28.02;;
68192;SDS011;55012;47.562;18.414;2022-12-29T15:50:29;71.40;;;28.73;;
68192;SDS011;55012;47.562;18.414;2022-12-29T15:52:57;64.07;;;28.73;;
68192;SDS011;55012;47.562;18.414;2022-12-29T15:58:01;62.50;;;28.67;;
68192;SDS011;55012;47.562;18.414;2022-12-29T16:00:33;67.38;;;30.20;;
68192;SDS011;55012;47.562;18.414;2022-12-29T16:03:02;64.55;;;30.48;;
68192;SDS011;55012;47.562;18.414;2022-12-29T16:05:38;65.78;;;29.65;;
68192;SDS011;55012;47.562;18.414;2022-12-29T16:10:49;69.17;;;30.47;;
68192;SDS011;55012;47.562;18.414;2022-12-29T16:13:31;67.22;;;30.55;;
68192;SDS011;55012;47.562;18.414;2022-12-29T16:16:02;69.20;;;30.50;;
68192;SDS011;55012;47.562;18.414;2022-12-29T16:18:35;63.47;;;30.30;;
68192;SDS011;55012;47.562;18.414;2022-12-29T16:21:03;65.72;;;29.92;;
68192;SDS011;55012;47.562;18.414;2022-12-29T16:23:30;67.75;;;30.55;;
68192;SDS011;55012;47.562;18.414;2022-12-29T16:25:57;71.18;;;31.10;;
68192;SDS011;55012;47.562;18.414;2022-12-29T16:28:23;66.80;;;30.98;;
68192;SDS011;55012;47.562;18.414;2022-12-29T16:31:13;68.97;;;30.33;;
68192;SDS011;55012;47.562;18.414;2022-12-29T16:33:50;67.55;;;30.45;;
68192;SDS011;55012;47.562;18.414;2022-12-29T16:36:27;68.40;;;32.25;;
68192;SDS011;55012;47.562;18.414;2022-12-29T16:41:39;66.10;;;29.90;;
68192;SDS011;55012;47.562;18.414;2022-12-29T16:44:11;64.07;;;30.63;;
68192;SDS011;55012;47.562;18.414;2022-12-29T16:49:31;69.18;;;30.65;;
68192;SDS011;55012;47.562;18.414;2022-12-29T16:51:59;65.50;;;30.00;;
68192;SDS011;55012;47.562;18.414;2022-12-29T16:54:30;68.53;;;30.05;;
68192;SDS011;55012;47.562;18.414;2022-12-29T16:56:59;71.65;;;30.77;;
68192;SDS011;55012;47.562;18.414;2022-12-29T16:59:26;69.47;;;30.88;;
68192;SDS011;55012;47.562;18.414;2022-12-29T17:01:56;65.10;;;30.75;;
68192;SDS011;55012;47.562;18.414;2022-12-29T17:04:23;65.45;;;30.58;;
68192;SDS011;55012;47.562;18.414;2022-12-29T17:06:49;68.53;;;30.42;;
68192;SDS011;55012;47.562;18.414;2022-12-29T17:09:18;66.90;;;31.42;;
68192;SDS011;55012;47.562;18.414;2022-12-29T17:11:46;75.88;;;33.30;;
68192;SDS011;55012;47.562;18.414;2022-12-29T17:14:37;68.20;;;29.75;;
68192;SDS011;55012;47.562;18.414;2022-12-29T17:19:56;68.32;;;30.80;;
68192;SDS011;55012;47.562;18.414;2022-12-29T17:22:27;70.15;;;30.70;;
68192;SDS011;55012;47.562;18.414;2022-12-29T17:24:53;66.47;;;29.92;;
68192;SDS011;55012;47.562;18.414;2022-12-29T17:27:28;67.38;;;30.92;;
68192;SDS011;55012;47.562;18.414;2022-12-29T17:30:09;66.20;;;29.77;;
68192;SDS011;55012;47.562;18.414;2022-12-29T17:32:40;68.10;;;29.88;;
68192;SDS011;55012;47.562;18.414;2022-12-29T17:35:12;66.05;;;30.95;;
68192;SDS011;55012;47.562;18.414;2022-12-29T17:37:42;67.75;;;30.02;;
68192;SDS011;55012;47.562;18.414;2022-12-29T17:40:15;67.22;;;30.63;;